Porthill, Idaho
Current Conditions -  °F | °C
As of 9:55 AM on Friday 19 Dec 2014 (Local Time) from K65S Reporting Station
Unknown Precip Unknown Precip  
Wind Chill: 36°   Ceiling: 1200
Heat Index: 36°   Visibility: 3mi
Dew Point: 36°   Wind: 0mph
Humidity: 100%   Direction: NA
Pressure: 29.88"   Gusts: NA
Location:  49°N, 116.5°W
Report Text: K65S 191755Z AUTO 00000KT 3SM UP BKN012 BKN022 02/02 A2988 RMK AO2 P0001
Loading
Personal Weather Stations






























Interactive Weather Map New forecast layout! Learn more

10-Day Weather Forecast

Advertisements
Track Severe Weather on mobile